Aeroporto :
LOGIN :

Iscrizione | Disclaimer

   EN    FR    IT 

 










Sommario :    VFR   VFR Marginale   IFR   IFR Intensivo   IFR Molto Intensivo
Visibilità : 
Base nubi : 
>= 8 km
>= 3000ft
5 / 8 km
1000 / 3000 ft
1500m / 5 km
500 / 1000 ft
800 / 1500m
200 / 500 ft
< 800m
< 200 ft
Simboli :   Temporali  Nebbia  Neve Forte  Precipitazioni Forti  Vento > 20 kt
SIGMETs :   Varie  Temporali  Ghiacco  Turbolenza  Onda orograficha  Ceneri Vulcaniche






- Altitudine del aeroporto : 218 ft


EGYD - RAF Cranwell

ULTIMO METAR :
  • 060950Z 23020KT 9999 FEW012 BKN020 BKN030 12/10 Q1000 TEMPO 5000 -DZ SCT012 RMK WHT TEMPO GRN

METARs OBSOLETI :
  • 060921Z 23020KT 9999 BKN012 BKN025 11/10 Q1000 TEMPO 5000 -DZ RMK GRN TEMPO GRN
  • 060850Z 23021KT 9999 BKN011 OVC050 11/10 Q1000 TEMPO 5000 -DZ RMK GRN TEMPO GRN
  • 060820Z 23020KT 9999 BKN012 OVC060 11/10 Q1000 TEMPO 5000 -DZ RMK GRN TEMPO GRN
  • 060750Z 22019KT 9999 SCT012 BKN060 OVC120 11/10 Q1000 TEMPO 5000 -DZ RMK GRN TEMPO GRN
  • 060721Z 22020KT 9999 FEW012 SCT050 OVC120 11/10 Q1000 TEMPO 5000 -DZ BKN008 RMK BLU TEMPO GRN

TAF TAF EGYD
Valido dal 06 a 09 ore il 06 a 18 ore UTC


060753Z 0609/0618 22022G32KT 9999 BKN018
TEMPO 0609/0611 5000 -DZ BKN008
PROB30
TEMPO 0609/0611 3000 DZ
BECMG 0610/0612 FEW015
TEMPO 0612/0618 6000 SHRA SCT015
PROB40
TEMPO 0613/0617 4000 +SHRA BKN014CB
BECMG 0615/0618 27015KT



MetMap, La meteo Aeronautica in un colpo d'occhio ! - Copyright ORBIFLY Dicembre 2007 - Disclaimer

ORBIFLY MET'MAP TEAM :

Programmazione e sviluppo : Alexandra Zaïnal
Concezione : Baudouin d'Aumeries
Aiuto per la programmazione : Marc-Olivier Méhu
Supporto tecnico e logistico : Manuel Goepfert
Aiuto per la traduzione : Arnaldo La Scala

Contatto : metmap@orbifly.com




FONTI E CREDITI :

   NOAA